Time;durP1;ratioP1;P1;durP2;ratioP2;P2;SDS_P1;SDS_P2;PMS_P1;PMS_P2;Temp;Humidity;BMP_temperature;BMP_pressure;BME280_temperature;BME280_humidity;BME280_pressure;Samples;Min_cycle;Max_cycle;Signal;HPM_P1;HPM_P2
2022/12/02 00:01:53;;;;;;;51.08;29.48;;;6.80;99.90;;;;;;4853284;29;20596;-70
2022/12/02 00:04:20;;;;;;;47.08;28.30;;;6.90;99.90;;;;;;4843375;29;20076;-70
2022/12/02 00:06:47;;;;;;;50.90;29.38;;;6.90;99.90;;;;;;4846185;29;20053;-72
2022/12/02 00:09:14;;;;;;;46.90;28.05;;;6.90;99.90;;;;;;4855370;29;20041;-70
2022/12/02 00:11:40;;;;;;;46.58;26.75;;;6.90;99.90;;;;;;4854256;29;20065;-70
2022/12/02 00:14:07;;;;;;;46.33;26.52;;;6.90;99.90;;;;;;4847282;29;20558;-71
2022/12/02 00:16:34;;;;;;;45.35;25.88;;;6.80;99.90;;;;;;4843338;29;20463;-70
2022/12/02 00:19:01;;;;;;;42.40;25.15;;;6.80;99.90;;;;;;4854076;29;20072;-69
2022/12/02 00:21:27;;;;;;;38.78;25.13;;;6.80;99.90;;;;;;4860940;29;20128;-69
2022/12/02 00:23:54;;;;;;;45.10;25.20;;;6.80;99.90;;;;;;4849944;29;20512;-70
2022/12/02 00:26:21;;;;;;;41.58;23.98;;;6.80;99.90;;;;;;4848821;29;20053;-70
2022/12/02 00:28:47;;;;;;;38.78;23.50;;;6.80;99.90;;;;;;4866603;29;20057;-70
2022/12/02 00:31:14;;;;;;;40.47;24.08;;;6.80;99.90;;;;;;4859508;29;20140;-70
2022/12/02 00:33:42;;;;;;;39.28;23.23;;;6.80;99.90;;;;;;4856749;29;20058;-72
2022/12/02 00:36:08;;;;;;;41.20;24.45;;;6.80;99.90;;;;;;4856403;29;20102;-69
2022/12/02 00:38:35;;;;;;;39.47;23.60;;;6.80;99.90;;;;;;4841736;29;20054;-69
2022/12/02 00:41:02;;;;;;;44.13;25.13;;;6.80;99.90;;;;;;4854364;29;20049;-70
2022/12/02 00:46:33;;;;;;;42.22;24.65;;;6.90;99.90;;;;;;4859538;29;20095;-69
2022/12/02 00:49:00;;;;;;;48.17;25.58;;;6.90;99.90;;;;;;4874194;29;20105;-70
2022/12/02 00:51:27;;;;;;;41.60;24.27;;;6.90;99.90;;;;;;4860340;29;20069;-71
2022/12/02 00:53:54;;;;;;;45.80;25.15;;;6.80;99.90;;;;;;4849519;29;20046;-71
2022/12/02 00:56:20;;;;;;;50.03;25.98;;;6.80;99.90;;;;;;4848349;29;20045;-71
2022/12/02 00:58:48;;;;;;;51.78;25.58;;;6.80;99.90;;;;;;4855642;29;20064;-70
2022/12/02 01:01:14;;;;;;;45.70;24.75;;;6.80;99.90;;;;;;4847017;29;20074;-69
2022/12/02 01:03:41;;;;;;;45.08;25.30;;;6.80;99.90;;;;;;4858475;29;20053;-70
2022/12/02 01:06:11;;;;;;;51.90;27.58;;;6.80;99.90;;;;;;4859176;29;20064;-72
2022/12/02 01:08:38;;;;;;;46.65;26.17;;;6.80;99.90;;;;;;4851716;29;20038;-69
2022/12/02 01:11:05;;;;;;;42.30;24.38;;;6.80;99.90;;;;;;4846495;29;20049;-69
2022/12/02 01:13:32;;;;;;;43.17;25.60;;;6.70;99.90;;;;;;4859923;29;20398;-72
2022/12/02 01:15:58;;;;;;;50.58;26.52;;;6.70;99.90;;;;;;4857858;29;20045;-70
2022/12/02 01:18:27;;;;;;;45.67;26.67;;;6.70;99.90;;;;;;4836733;29;20061;-70
2022/12/02 01:20:53;;;;;;;55.25;26.52;;;6.70;99.90;;;;;;4840777;29;20103;-70
2022/12/02 01:23:20;;;;;;;50.03;26.17;;;6.70;99.90;;;;;;4847917;29;20423;-70
2022/12/02 01:25:47;;;;;;;52.13;25.98;;;6.70;99.90;;;;;;4859045;29;20113;-70
2022/12/02 01:28:14;;;;;;;58.35;24.50;;;6.60;99.90;;;;;;4859708;29;20120;-70
2022/12/02 01:30:41;;;;;;;56.15;24.27;;;6.60;99.90;;;;;;4859059;29;20175;-70
2022/12/02 01:33:07;;;;;;;49.28;23.70;;;6.50;99.90;;;;;;4844112;29;20054;-70
2022/12/02 01:35:34;;;;;;;44.65;22.77;;;6.50;99.90;;;;;;4859311;29;20386;-68
2022/12/02 01:38:01;;;;;;;40.72;22.88;;;6.40;99.90;;;;;;4845254;29;20094;-69
2022/12/02 01:40:27;;;;;;;46.30;23.55;;;6.40;99.90;;;;;;4859912;29;20460;-71
2022/12/02 01:42:54;;;;;;;73.90;23.25;;;6.40;99.90;;;;;;4855062;29;20107;-69
2022/12/02 01:45:21;;;;;;;72.25;23.40;;;6.40;99.90;;;;;;4860432;29;20047;-69
2022/12/02 01:47:48;;;;;;;53.58;23.30;;;6.30;99.90;;;;;;4859551;29;20053;-69
2022/12/02 01:50:14;;;;;;;54.83;23.90;;;6.30;99.90;;;;;;4858994;29;20064;-69
2022/12/02 01:52:41;;;;;;;56.50;23.88;;;6.30;99.90;;;;;;4858624;29;20106;-70
2022/12/02 01:55:08;;;;;;;52.80;22.98;;;6.30;99.90;;;;;;4851024;29;20387;-69
2022/12/02 01:57:35;;;;;;;72.55;23.40;;;6.30;99.90;;;;;;4853026;29;20042;-69
2022/12/02 02:00:02;;;;;;;70.28;22.95;;;6.30;99.90;;;;;;4850280;29;20466;-68
2022/12/02 02:02:37;;;;;;;56.22;23.60;;;6.30;99.90;;;;;;4859072;29;20596;-68
2022/12/02 02:05:03;;;;;;;46.03;22.85;;;6.20;99.90;;;;;;4855771;29;20402;-68
2022/12/02 02:07:31;;;;;;;55.67;21.45;;;6.30;99.90;;;;;;4859615;29;20136;-68
2022/12/02 02:09:58;;;;;;;42.92;21.90;;;6.20;99.90;;;;;;4846463;29;20073;-68
2022/12/02 02:12:26;;;;;;;42.75;21.98;;;6.20;99.90;;;;;;4829430;29;20046;-68
2022/12/02 02:14:53;;;;;;;46.95;22.42;;;6.20;99.90;;;;;;4843994;29;20422;-68
2022/12/02 02:17:20;;;;;;;32.88;18.92;;;6.20;99.90;;;;;;4844496;29;20042;-69
2022/12/02 02:19:47;;;;;;;32.75;18.65;;;6.20;99.90;;;;;;4859284;29;20060;-69
2022/12/02 02:22:14;;;;;;;31.08;18.98;;;6.20;99.90;;;;;;4862631;29;20049;-68
2022/12/02 02:24:41;;;;;;;32.25;18.98;;;6.30;99.90;;;;;;4862340;29;20053;-69
2022/12/02 02:27:08;;;;;;;36.35;19.48;;;6.30;99.90;;;;;;4862457;29;20383;-68
2022/12/02 02:29:35;;;;;;;33.65;19.90;;;6.30;99.90;;;;;;4848499;29;20050;-69
2022/12/02 02:32:02;;;;;;;38.97;21.40;;;6.30;99.90;;;;;;4845214;29;20125;-69
2022/12/02 02:34:29;;;;;;;38.13;21.35;;;6.30;99.90;;;;;;4844589;29;20090;-68
2022/12/02 02:36:57;;;;;;;36.35;19.98;;;6.40;99.90;;;;;;4850416;29;20509;-69
2022/12/02 02:39:24;;;;;;;35.92;20.55;;;6.30;99.90;;;;;;4860640;29;20130;-69
2022/12/02 02:41:50;;;;;;;35.00;19.40;;;6.30;99.90;;;;;;4862110;29;20053;-69
2022/12/02 02:44:17;;;;;;;34.50;20.40;;;6.30;99.90;;;;;;4862381;29;20061;-69
2022/12/02 02:46:51;;;;;;;35.75;19.83;;;6.30;99.90;;;;;;4877769;29;20401;-69
2022/12/02 02:49:18;;;;;;;35.83;20.05;;;6.30;99.90;;;;;;4861660;29;20097;-68
2022/12/02 02:51:45;;;;;;;39.55;20.98;;;6.30;99.90;;;;;;4863526;29;20073;-68
2022/12/02 02:54:12;;;;;;;41.05;22.27;;;6.30;99.90;;;;;;4862108;29;20041;-69
2022/12/02 02:56:39;;;;;;;45.15;22.95;;;6.20;99.90;;;;;;4862422;29;20053;-68
2022/12/02 02:59:06;;;;;;;42.42;22.40;;;6.20;99.90;;;;;;4853025;29;20491;-68
2022/12/02 03:01:33;;;;;;;57.88;21.08;;;6.20;99.90;;;;;;4843863;29;20482;-68
2022/12/02 03:04:00;;;;;;;55.63;21.42;;;6.20;99.90;;;;;;4843577;29;20053;-68
2022/12/02 03:06:27;;;;;;;39.72;20.67;;;6.20;99.90;;;;;;4843644;29;20054;-68
2022/12/02 03:08:55;;;;;;;46.60;20.95;;;6.10;99.90;;;;;;4853405;29;20136;-68
2022/12/02 03:11:22;;;;;;;46.00;21.27;;;6.10;99.90;;;;;;4861641;29;20078;-68
2022/12/02 03:13:48;;;;;;;38.80;20.55;;;6.10;99.90;;;;;;4863099;29;20037;-68
2022/12/02 03:16:15;;;;;;;43.28;21.10;;;6.10;99.90;;;;;;4862048;29;20052;-68
2022/12/02 03:18:42;;;;;;;39.72;20.98;;;6.10;99.90;;;;;;4862562;29;20097;-68
2022/12/02 03:21:09;;;;;;;37.25;20.50;;;6.20;99.90;;;;;;4861530;29;20041;-68
2022/12/02 03:23:35;;;;;;;42.90;21.48;;;6.20;99.90;;;;;;4861894;29;20121;-68
2022/12/02 03:26:02;;;;;;;37.97;20.40;;;6.20;99.90;;;;;;4862266;29;20128;-68
2022/12/02 03:28:29;;;;;;;38.03;18.98;;;6.20;99.90;;;;;;4862044;29;20423;-68
2022/12/02 03:30:55;;;;;;;33.20;18.67;;;6.20;99.90;;;;;;4862272;29;20153;-68
2022/12/02 03:33:22;;;;;;;37.90;18.85;;;6.20;99.90;;;;;;4862830;29;20445;-68
2022/12/02 03:35:49;;;;;;;37.33;19.63;;;6.10;99.90;;;;;;4862749;29;20076;-68
2022/12/02 03:38:16;;;;;;;37.13;18.88;;;6.10;99.90;;;;;;4861780;29;20113;-67
2022/12/02 03:40:42;;;;;;;37.20;19.73;;;6.20;99.90;;;;;;4862827;29;20050;-68
2022/12/02 03:43:09;;;;;;;35.20;18.25;;;6.20;99.90;;;;;;4862988;29;20497;-67
2022/12/02 03:45:36;;;;;;;38.08;18.38;;;6.20;99.90;;;;;;4862521;29;20118;-68
2022/12/02 03:48:03;;;;;;;34.65;18.65;;;6.20;99.90;;;;;;4860346;29;20177;-68
2022/12/02 03:50:29;;;;;;;38.17;18.65;;;6.20;99.90;;;;;;4862486;29;20080;-68
2022/12/02 03:52:56;;;;;;;38.50;18.60;;;6.20;99.90;;;;;;4862557;29;20419;-68
2022/12/02 03:55:23;;;;;;;38.00;19.15;;;6.20;99.90;;;;;;4862330;29;20077;-68
2022/12/02 03:57:50;;;;;;;35.40;19.55;;;6.10;99.90;;;;;;4860469;29;20413;-68
2022/12/02 04:00:16;;;;;;;32.67;16.08;;;6.10;99.90;;;;;;4862134;29;20090;-68
2022/12/02 04:02:43;;;;;;;33.67;18.17;;;6.10;99.90;;;;;;4862297;29;20105;-68
2022/12/02 04:05:10;;;;;;;35.15;16.73;;;6.00;99.90;;;;;;4862320;29;20045;-69
2022/12/02 04:07:37;;;;;;;33.97;17.17;;;6.00;99.90;;;;;;4861188;29;20052;-68
2022/12/02 04:10:03;;;;;;;35.40;18.23;;;6.00;99.90;;;;;;4861820;29;20049;-69
2022/12/02 04:12:30;;;;;;;36.35;18.42;;;6.00;99.90;;;;;;4862258;29;20132;-68
2022/12/02 04:14:57;;;;;;;29.25;16.13;;;6.00;99.90;;;;;;4860605;29;20056;-69
2022/12/02 04:17:24;;;;;;;30.00;16.48;;;6.00;99.90;;;;;;4859583;29;20497;-69
2022/12/02 04:19:50;;;;;;;31.20;16.13;;;6.00;99.90;;;;;;4862183;29;20053;-69
2022/12/02 04:22:17;;;;;;;30.05;16.45;;;6.00;99.90;;;;;;4862084;29;20042;-69
2022/12/02 04:24:44;;;;;;;34.20;17.75;;;6.00;99.90;;;;;;4861753;29;20132;-69
2022/12/02 04:27:11;;;;;;;31.67;16.88;;;6.00;99.90;;;;;;4861237;29;20462;-68
2022/12/02 04:29:37;;;;;;;30.23;16.83;;;6.00;99.90;;;;;;4860048;29;20062;-69
2022/12/02 04:32:04;;;;;;;30.52;16.08;;;6.00;99.90;;;;;;4861501;29;20073;-68
2022/12/02 04:34:31;;;;;;;30.52;16.67;;;6.00;99.90;;;;;;4861559;29;20042;-69
2022/12/02 04:36:57;;;;;;;28.35;16.70;;;5.90;99.90;;;;;;4859401;29;20052;-69
2022/12/02 04:39:24;;;;;;;28.77;15.90;;;6.00;99.90;;;;;;4861585;29;20056;-69
2022/12/02 04:41:52;;;;;;;29.55;15.90;;;5.90;99.90;;;;;;4861793;29;20080;-69
2022/12/02 04:44:18;;;;;;;24.85;15.73;;;5.90;99.90;;;;;;4862119;29;20558;-68
2022/12/02 04:46:45;;;;;;;25.77;16.42;;;5.80;99.90;;;;;;4859267;29;20473;-69
2022/12/02 04:49:12;;;;;;;28.67;16.83;;;5.90;99.90;;;;;;4861690;29;20470;-69
2022/12/02 04:51:39;;;;;;;25.30;15.02;;;5.90;99.90;;;;;;4858504;29;20045;-68
2022/12/02 04:54:05;;;;;;;25.38;15.35;;;5.90;99.90;;;;;;4846893;29;20042;-68
2022/12/02 04:56:32;;;;;;;21.35;14.38;;;6.00;99.90;;;;;;4861409;29;20094;-68
2022/12/02 04:58:59;;;;;;;24.95;14.73;;;5.90;99.90;;;;;;4860489;29;20041;-68
2022/12/02 05:01:26;;;;;;;24.52;15.13;;;5.90;99.90;;;;;;4860347;29;20128;-68
2022/12/02 05:03:53;;;;;;;23.45;15.05;;;5.90;99.90;;;;;;4861405;29;20048;-68
2022/12/02 05:06:19;;;;;;;24.50;15.38;;;5.90;99.90;;;;;;4861389;29;20056;-68
2022/12/02 05:08:46;;;;;;;27.48;15.68;;;5.90;99.90;;;;;;4856420;29;20502;-68
2022/12/02 05:11:13;;;;;;;25.05;14.85;;;5.90;99.90;;;;;;4841649;29;20487;-69
2022/12/02 05:13:39;;;;;;;23.77;14.63;;;6.00;99.90;;;;;;4842909;29;20141;-68
2022/12/02 05:16:06;;;;;;;23.60;15.30;;;6.00;99.90;;;;;;4859662;29;20120;-67
2022/12/02 05:18:33;;;;;;;25.58;16.50;;;6.00;99.90;;;;;;4858811;29;20038;-69
2022/12/02 05:21:00;;;;;;;25.13;16.23;;;6.00;99.90;;;;;;4861073;29;20049;-68
2022/12/02 05:23:27;;;;;;;24.33;15.13;;;6.00;99.90;;;;;;4861771;29;20078;-69
2022/12/02 05:25:53;;;;;;;23.38;15.00;;;6.00;99.90;;;;;;4861130;29;20045;-69
2022/12/02 05:28:20;;;;;;;23.30;15.63;;;6.00;99.90;;;;;;4857322;29;20080;-68
2022/12/02 05:30:47;;;;;;;25.83;16.25;;;6.00;99.90;;;;;;4842284;29;20054;-68
2022/12/02 05:33:13;;;;;;;28.48;16.25;;;6.00;99.90;;;;;;4841356;29;20054;-69
2022/12/02 05:35:40;;;;;;;24.67;16.30;;;6.00;99.90;;;;;;4842865;29;20486;-69
2022/12/02 05:38:07;;;;;;;24.60;15.73;;;6.00;99.90;;;;;;4842344;29;20038;-69
2022/12/02 05:40:34;;;;;;;23.08;16.55;;;5.90;99.90;;;;;;4841737;29;20136;-69
2022/12/02 05:43:00;;;;;;;25.20;15.05;;;5.90;99.90;;;;;;4842772;29;20046;-69
2022/12/02 05:45:27;;;;;;;27.17;15.45;;;6.00;99.90;;;;;;4844943;29;20050;-68
2022/12/02 05:47:54;;;;;;;25.90;16.00;;;5.90;99.90;;;;;;4845131;29;20451;-68
2022/12/02 05:50:20;;;;;;;27.40;16.95;;;5.90;99.90;;;;;;4847784;29;20050;-69
2022/12/02 05:52:53;;;;;;;26.77;16.88;;;5.90;99.90;;;;;;4853711;29;20073;-69
2022/12/02 05:55:20;;;;;;;25.77;15.93;;;5.90;99.90;;;;;;4845728;29;20066;-68
2022/12/02 05:57:47;;;;;;;29.45;17.17;;;5.90;99.90;;;;;;4845486;29;20053;-68
2022/12/02 06:00:14;;;;;;;25.88;15.77;;;5.90;99.90;;;;;;4846021;29;20077;-68
2022/12/02 06:02:41;;;;;;;25.52;15.60;;;6.00;99.90;;;;;;4846112;29;20110;-68
2022/12/02 06:05:08;;;;;;;26.00;16.33;;;6.00;99.90;;;;;;4845503;29;20378;-67
2022/12/02 06:07:34;;;;;;;26.88;16.85;;;6.00;99.90;;;;;;4845830;29;20125;-69
2022/12/02 06:10:01;;;;;;;22.40;15.57;;;6.10;99.90;;;;;;4845908;29;20478;-68
2022/12/02 06:12:28;;;;;;;26.58;16.58;;;6.10;99.90;;;;;;4845747;29;20451;-68
2022/12/02 06:14:54;;;;;;;23.35;15.30;;;6.00;99.90;;;;;;4845571;29;20153;-69
2022/12/02 06:17:21;;;;;;;23.40;15.30;;;6.00;99.90;;;;;;4844064;29;20132;-68
2022/12/02 06:19:48;;;;;;;21.67;15.57;;;6.00;99.90;;;;;;4860369;29;20150;-67
2022/12/02 06:22:15;;;;;;;22.90;14.82;;;6.00;99.90;;;;;;4862294;29;20049;-68
2022/12/02 06:24:41;;;;;;;21.23;13.73;;;6.10;99.90;;;;;;4860560;29;20078;-70
2022/12/02 06:27:08;;;;;;;20.60;14.32;;;6.00;99.90;;;;;;4862029;29;20106;-69
2022/12/02 06:29:35;;;;;;;19.67;12.93;;;6.00;99.90;;;;;;4862317;29;20067;-67
2022/12/02 06:32:02;;;;;;;22.38;15.07;;;6.00;99.90;;;;;;4863614;29;20045;-68
2022/12/02 06:34:30;;;;;;;22.55;13.82;;;5.90;99.90;;;;;;4863771;29;20557;-69
2022/12/02 06:36:57;;;;;;;20.77;14.65;;;6.00;99.90;;;;;;4862527;29;20485;-67
2022/12/02 06:39:24;;;;;;;20.45;13.77;;;5.90;99.90;;;;;;4862004;29;20065;-67
2022/12/02 06:41:53;;;;;;;23.52;15.70;;;6.00;99.90;;;;;;4859501;29;20057;-65
2022/12/02 06:47:05;;;;;;;20.52;14.13;;;6.00;99.90;;;;;;4863002;29;20378;-66
2022/12/02 06:49:32;;;;;;;19.63;13.75;;;6.00;99.90;;;;;;4854152;29;20129;-68
2022/12/02 06:51:58;;;;;;;18.02;13.32;;;6.00;99.90;;;;;;4863358;29;20084;-69
2022/12/02 06:54:25;;;;;;;19.92;13.55;;;5.90;99.90;;;;;;4862992;29;20041;-68
2022/12/02 06:56:52;;;;;;;20.73;14.02;;;5.90;99.90;;;;;;4862972;29;20046;-72
2022/12/02 06:59:19;;;;;;;18.45;12.90;;;5.90;99.90;;;;;;4861787;29;20474;-70
2022/12/02 07:01:45;;;;;;;18.33;12.95;;;5.90;99.90;;;;;;4862960;29;20082;-66
2022/12/02 07:04:12;;;;;;;18.75;12.80;;;5.90;99.90;;;;;;4862805;29;20045;-66
2022/12/02 07:06:39;;;;;;;16.90;11.90;;;5.90;99.90;;;;;;4858036;29;20049;-67
2022/12/02 07:09:06;;;;;;;17.30;12.98;;;5.80;99.90;;;;;;4845691;29;20114;-67
2022/12/02 07:11:52;;;;;;;16.83;13.23;;;5.80;99.90;;;;;;4862479;29;20474;-64
2022/12/02 07:14:19;;;;;;;18.33;12.90;;;5.80;99.90;;;;;;4848267;29;20494;-67
2022/12/02 07:16:46;;;;;;;21.35;12.95;;;5.70;99.90;;;;;;4844137;29;20042;-67
2022/12/02 07:19:13;;;;;;;18.90;12.90;;;5.80;99.90;;;;;;4844074;29;20052;-68
2022/12/02 07:21:39;;;;;;;17.77;12.30;;;5.80;99.90;;;;;;4843806;29;20050;-67
2022/12/02 07:24:06;;;;;;;19.75;12.98;;;5.80;99.90;;;;;;4844590;29;20042;-66
2022/12/02 07:26:33;;;;;;;18.05;12.35;;;5.90;99.90;;;;;;4844586;29;20057;-66
2022/12/02 07:29:00;;;;;;;18.58;11.32;;;5.90;99.90;;;;;;4843472;29;20058;-66
2022/12/02 07:31:45;;;;;;;17.17;12.65;;;5.90;99.90;;;;;;4842873;29;20042;-66
2022/12/02 07:34:12;;;;;;;17.80;13.15;;;5.90;99.90;;;;;;4842643;29;20050;-68
2022/12/02 07:36:39;;;;;;;16.08;12.40;;;5.90;99.90;;;;;;4842481;29;20042;-65
2022/12/02 07:39:06;;;;;;;16.60;12.25;;;5.90;99.90;;;;;;4842408;29;20046;-67
2022/12/02 07:41:37;;;;;;;16.65;12.27;;;5.90;99.90;;;;;;4841100;29;20078;-66
2022/12/02 07:44:03;;;;;;;19.55;12.10;;;5.90;99.90;;;;;;4842443;29;20182;-65
2022/12/02 07:46:30;;;;;;;18.98;12.00;;;5.90;99.90;;;;;;4842865;29;20064;-65
2022/12/02 07:48:57;;;;;;;18.67;13.10;;;5.90;99.90;;;;;;4843620;29;20060;-65
2022/12/02 07:51:24;;;;;;;18.15;12.52;;;6.00;99.90;;;;;;4842830;29;20057;-67
2022/12/02 07:53:51;;;;;;;17.23;11.65;;;6.00;99.90;;;;;;4843813;29;20122;-67
2022/12/02 07:56:17;;;;;;;18.45;12.63;;;6.00;99.90;;;;;;4842393;29;20083;-67
2022/12/02 07:58:44;;;;;;;18.95;13.27;;;6.00;99.90;;;;;;4843921;29;20106;-65
2022/12/02 08:01:31;;;;;;;18.20;12.48;;;6.10;99.90;;;;;;4843813;29;20048;-66
2022/12/02 08:03:57;;;;;;;18.20;12.35;;;6.10;99.90;;;;;;4857435;29;20061;-65
2022/12/02 08:06:24;;;;;;;19.77;12.88;;;6.10;99.90;;;;;;4861051;29;20045;-67
2022/12/02 08:08:51;;;;;;;18.98;11.88;;;6.10;99.90;;;;;;4862153;29;20046;-66
2022/12/02 08:11:18;;;;;;;21.67;12.77;;;6.10;99.90;;;;;;4861662;29;20074;-65
2022/12/02 08:13:44;;;;;;;18.40;11.30;;;6.10;99.90;;;;;;4862191;29;20098;-64
2022/12/02 08:16:11;;;;;;;20.63;12.32;;;6.10;99.90;;;;;;4861898;29;20041;-66
2022/12/02 08:18:38;;;;;;;17.92;12.60;;;6.10;99.90;;;;;;4862139;29;20049;-68
2022/12/02 08:21:04;;;;;;;17.70;12.10;;;6.10;99.90;;;;;;4860662;29;20144;-69
2022/12/02 08:23:34;;;;;;;18.05;12.20;;;6.10;99.90;;;;;;4861794;29;20053;-67
2022/12/02 08:26:01;;;;;;;20.73;12.18;;;6.20;99.90;;;;;;4860433;29;20369;-67
2022/12/02 08:28:28;;;;;;;19.65;12.68;;;6.10;99.90;;;;;;4846239;29;20050;-68
2022/12/02 08:30:54;;;;;;;18.80;11.98;;;6.20;99.90;;;;;;4861592;29;20089;-67
2022/12/02 08:33:21;;;;;;;22.65;13.05;;;6.20;99.90;;;;;;4860749;29;20048;-67
2022/12/02 08:35:48;;;;;;;19.83;12.10;;;6.20;99.90;;;;;;4861029;29;20051;-67
2022/12/02 08:38:15;;;;;;;23.85;13.10;;;6.20;99.90;;;;;;4859565;29;20481;-68
2022/12/02 08:40:42;;;;;;;18.67;12.02;;;6.20;99.90;;;;;;4845729;29;20057;-69
2022/12/02 08:43:09;;;;;;;16.92;11.98;;;6.30;99.90;;;;;;4848659;29;20077;-67
2022/12/02 08:45:36;;;;;;;19.52;12.25;;;6.30;99.90;;;;;;4859978;29;20097;-65
2022/12/02 08:48:02;;;;;;;19.88;11.38;;;6.30;99.90;;;;;;4859961;29;20056;-65
2022/12/02 08:50:29;;;;;;;24.77;12.48;;;6.30;99.90;;;;;;4860105;29;20045;-66
2022/12/02 08:52:56;;;;;;;25.58;12.23;;;6.30;99.90;;;;;;4861016;29;20084;-65
2022/12/02 08:55:24;;;;;;;21.10;11.65;;;6.30;99.90;;;;;;4860152;29;20037;-66
2022/12/02 08:57:51;;;;;;;20.88;12.18;;;6.40;99.90;;;;;;4855244;29;20046;-66
2022/12/02 09:00:17;;;;;;;20.63;12.43;;;6.40;99.90;;;;;;4849140;29;20038;-67
2022/12/02 09:02:44;;;;;;;21.98;12.40;;;6.40;99.90;;;;;;4842218;29;20045;-67
2022/12/02 09:05:11;;;;;;;18.73;12.63;;;6.40;99.90;;;;;;4852282;29;20041;-64
2022/12/02 09:07:38;;;;;;;18.70;11.95;;;6.40;99.90;;;;;;4846586;29;20110;-66
2022/12/02 09:10:05;;;;;;;20.73;12.85;;;6.40;99.90;;;;;;4841509;29;20056;-66
2022/12/02 09:12:32;;;;;;;19.15;12.43;;;6.50;99.90;;;;;;4842571;29;20098;-66
2022/12/02 09:14:58;;;;;;;19.77;12.77;;;6.50;99.90;;;;;;4842770;29;20050;-67
2022/12/02 09:17:25;;;;;;;20.90;13.65;;;6.50;99.90;;;;;;4842978;29;20118;-67
2022/12/02 09:19:52;;;;;;;22.52;13.32;;;6.50;99.90;;;;;;4846276;29;20060;-65
2022/12/02 09:22:19;;;;;;;19.08;12.50;;;6.60;99.90;;;;;;4854450;29;20117;-66
2022/12/02 09:24:45;;;;;;;23.23;13.10;;;6.60;99.90;;;;;;4862987;29;20049;-66
2022/12/02 09:27:12;;;;;;;24.30;14.45;;;6.60;99.90;;;;;;4864160;29;20084;-67
2022/12/02 09:29:39;;;;;;;22.05;13.95;;;6.70;99.90;;;;;;4863848;29;20054;-66
2022/12/02 09:32:06;;;;;;;20.40;12.98;;;6.70;99.90;;;;;;4857403;29;20037;-66
2022/12/02 09:34:32;;;;;;;22.58;13.40;;;6.70;99.90;;;;;;4862990;29;20090;-65
2022/12/02 09:36:59;;;;;;;24.67;14.02;;;6.60;99.90;;;;;;4864005;29;20045;-64
2022/12/02 09:39:26;;;;;;;22.83;13.70;;;6.70;99.90;;;;;;4864061;29;20064;-64
2022/12/02 09:41:53;;;;;;;22.35;13.70;;;6.60;99.90;;;;;;4863131;29;20053;-65
2022/12/02 09:44:19;;;;;;;28.63;13.52;;;6.70;99.90;;;;;;4863228;29;20113;-64
2022/12/02 09:46:46;;;;;;;24.30;14.30;;;6.70;99.90;;;;;;4863193;29;20109;-64
2022/12/02 09:49:13;;;;;;;21.83;14.10;;;6.70;99.90;;;;;;4863510;29;20502;-65
2022/12/02 09:51:40;;;;;;;21.70;13.20;;;6.80;99.90;;;;;;4863334;29;20046;-66
2022/12/02 09:54:06;;;;;;;23.27;13.15;;;6.80;99.90;;;;;;4863096;29;20404;-66
2022/12/02 09:56:34;;;;;;;22.65;14.82;;;6.90;99.90;;;;;;4856690;29;20423;-64
2022/12/02 09:59:00;;;;;;;24.30;14.05;;;6.90;99.90;;;;;;4863099;29;20046;-66
2022/12/02 10:01:27;;;;;;;22.95;13.73;;;6.90;99.90;;;;;;4862312;29;20049;-65
2022/12/02 10:03:54;;;;;;;21.73;14.32;;;6.80;99.90;;;;;;4850476;29;20129;-66
2022/12/02 10:06:21;;;;;;;20.80;13.00;;;6.80;99.90;;;;;;4845230;29;20046;-64
2022/12/02 10:08:47;;;;;;;19.63;13.07;;;6.80;99.90;;;;;;4845217;29;20058;-64
2022/12/02 10:11:14;;;;;;;19.85;13.45;;;6.80;99.90;;;;;;4845180;29;20076;-65
2022/12/02 10:13:41;;;;;;;20.73;12.95;;;6.80;99.90;;;;;;4856043;29;20107;-65
2022/12/02 10:16:08;;;;;;;22.95;13.93;;;6.90;99.90;;;;;;4855970;29;20049;-63
2022/12/02 10:18:34;;;;;;;20.20;13.30;;;6.90;99.90;;;;;;4845279;29;20050;-63
2022/12/02 10:21:01;;;;;;;21.08;13.88;;;6.90;99.90;;;;;;4856163;29;20049;-66
2022/12/02 10:23:28;;;;;;;20.52;13.68;;;6.90;99.90;;;;;;4862800;29;20054;-63
2022/12/02 10:25:57;;;;;;;23.05;14.10;;;6.90;99.90;;;;;;4846360;29;20528;-65
2022/12/02 10:28:23;;;;;;;22.35;14.05;;;6.90;99.90;;;;;;4844828;29;20459;-64
2022/12/02 10:30:50;;;;;;;21.70;13.57;;;6.90;99.90;;;;;;4844184;29;20053;-65
2022/12/02 10:33:17;;;;;;;21.95;14.15;;;6.90;99.90;;;;;;4844964;29;20046;-67
2022/12/02 10:35:44;;;;;;;24.65;15.25;;;6.90;99.90;;;;;;4856074;29;20073;-63
2022/12/02 10:38:10;;;;;;;25.40;15.15;;;6.90;99.90;;;;;;4844612;29;20046;-64
2022/12/02 10:40:37;;;;;;;23.73;14.55;;;7.00;99.90;;;;;;4855732;29;20046;-65
2022/12/02 10:43:04;;;;;;;22.63;15.18;;;7.00;99.90;;;;;;4856331;29;20437;-67
2022/12/02 10:45:31;;;;;;;24.60;15.27;;;7.00;99.90;;;;;;4862487;29;20132;-63
2022/12/02 10:47:57;;;;;;;23.58;15.95;;;7.00;99.90;;;;;;4861964;29;20049;-64
2022/12/02 10:50:24;;;;;;;25.15;14.77;;;7.10;99.90;;;;;;4862268;29;20049;-64
2022/12/02 10:52:51;;;;;;;26.10;15.05;;;7.10;99.90;;;;;;4861804;29;20180;-66
2022/12/02 10:55:18;;;;;;;25.17;14.43;;;7.20;99.90;;;;;;4844497;29;20081;-64
2022/12/02 10:57:44;;;;;;;25.38;14.88;;;7.20;99.90;;;;;;4858698;29;20046;-65
2022/12/02 11:00:11;;;;;;;23.13;14.73;;;7.30;99.90;;;;;;4862144;29;20516;-63
2022/12/02 11:02:38;;;;;;;23.25;14.65;;;7.30;99.90;;;;;;4862083;29;20057;-68
2022/12/02 11:05:05;;;;;;;24.30;14.63;;;7.20;99.90;;;;;;4861225;29;20053;-63
2022/12/02 11:07:31;;;;;;;21.33;13.43;;;7.30;99.90;;;;;;4862114;29;20227;-65
2022/12/02 11:09:58;;;;;;;21.13;14.30;;;7.30;99.90;;;;;;4862010;29;20067;-65
2022/12/02 11:12:25;;;;;;;22.70;14.05;;;7.30;99.90;;;;;;4860994;29;20046;-63
2022/12/02 11:14:52;;;;;;;21.27;14.07;;;7.30;99.90;;;;;;4851036;29;20045;-64
2022/12/02 11:17:19;;;;;;;22.10;14.23;;;7.40;99.90;;;;;;4844154;29;20486;-66
2022/12/02 11:19:45;;;;;;;25.65;14.45;;;7.40;99.90;;;;;;4844127;29;20042;-66
2022/12/02 11:22:12;;;;;;;22.50;14.82;;;7.40;99.90;;;;;;4843948;29;20060;-64
2022/12/02 11:24:39;;;;;;;23.70;15.27;;;7.40;99.90;;;;;;4860036;29;20053;-66
2022/12/02 11:27:06;;;;;;;22.80;14.80;;;7.40;99.90;;;;;;4855272;29;20097;-64
2022/12/02 11:29:32;;;;;;;24.17;14.40;;;7.50;99.90;;;;;;4861301;29;20400;-66
2022/12/02 11:31:59;;;;;;;25.50;15.07;;;7.50;99.90;;;;;;4861539;29;20042;-64
2022/12/02 11:34:26;;;;;;;24.40;13.80;;;7.50;99.90;;;;;;4861522;29;20046;-64
2022/12/02 11:36:53;;;;;;;23.27;14.88;;;7.50;99.90;;;;;;4861202;29;20046;-67
2022/12/02 11:39:19;;;;;;;19.35;13.98;;;7.60;99.90;;;;;;4860282;29;20113;-65
2022/12/02 11:41:46;;;;;;;20.05;13.88;;;7.60;99.90;;;;;;4860366;29;20046;-64
2022/12/02 11:44:13;;;;;;;22.48;13.88;;;7.60;99.90;;;;;;4861513;29;20067;-68
2022/12/02 11:46:40;;;;;;;21.92;14.25;;;7.60;99.90;;;;;;4860603;29;20049;-66
2022/12/02 11:49:06;;;;;;;22.95;15.07;;;7.60;99.90;;;;;;4861104;29;20054;-67
2022/12/02 11:51:33;;;;;;;20.60;13.73;;;7.60;99.90;;;;;;4861163;29;20049;-64
2022/12/02 11:54:00;;;;;;;21.48;14.80;;;7.60;99.90;;;;;;4861144;29;20053;-69
2022/12/02 11:56:27;;;;;;;22.55;13.98;;;7.60;99.90;;;;;;4860455;29;20053;-67
2022/12/02 11:58:53;;;;;;;20.08;14.63;;;7.60;99.90;;;;;;4860169;29;20050;-65
2022/12/02 12:01:20;;;;;;;19.85;13.45;;;7.70;99.90;;;;;;4860131;29;20109;-69
2022/12/02 12:03:47;;;;;;;20.33;12.82;;;7.80;99.90;;;;;;4860048;29;20045;-66
2022/12/02 12:06:14;;;;;;;19.38;13.90;;;7.90;99.90;;;;;;4845138;29;20447;-67
2022/12/02 12:08:41;;;;;;;19.42;13.30;;;7.90;99.90;;;;;;4855293;29;20062;-66
2022/12/02 12:11:08;;;;;;;19.08;13.60;;;8.00;99.90;;;;;;4848394;29;20084;-66
2022/12/02 12:13:35;;;;;;;21.00;14.95;;;8.00;99.90;;;;;;4859439;29;20128;-66
2022/12/02 12:16:03;;;;;;;21.45;14.77;;;8.00;99.90;;;;;;4852106;29;20041;-65
2022/12/02 12:18:29;;;;;;;22.55;15.45;;;8.00;99.90;;;;;;4857546;29;20049;-66
2022/12/02 12:20:56;;;;;;;19.17;14.20;;;8.00;99.90;;;;;;4845601;29;20050;-65
2022/12/02 12:23:23;;;;;;;18.30;13.05;;;8.10;99.90;;;;;;4858964;29;20405;-65
2022/12/02 12:25:50;;;;;;;19.88;14.13;;;8.10;99.90;;;;;;4860092;29;20193;-62
2022/12/02 12:28:17;;;;;;;20.23;13.68;;;8.10;99.90;;;;;;4860914;29;20512;-67
2022/12/02 12:30:44;;;;;;;22.13;14.77;;;8.10;99.90;;;;;;4860815;29;20125;-64
2022/12/02 12:33:10;;;;;;;18.73;14.07;;;8.10;99.90;;;;;;4860008;29;20595;-66
2022/12/02 12:35:37;;;;;;;18.83;13.52;;;8.00;99.90;;;;;;4860701;29;20037;-65
2022/12/02 12:38:04;;;;;;;20.60;14.00;;;8.10;99.90;;;;;;4860711;29;20041;-65
2022/12/02 12:40:31;;;;;;;19.67;13.60;;;8.10;99.90;;;;;;4846602;29;20160;-69